Time;durP1;ratioP1;P1;durP2;ratioP2;P2;SDS_P1;SDS_P2;PMS_P1;PMS_P2;Temp;Humidity;BMP_temperature;BMP_pressure;BME280_temperature;BME280_humidity;BME280_pressure;Samples;Min_cycle;Max_cycle;Signal;HPM_P1;HPM_P2
2023/07/19 00:00:18;;;;;;;4.15;2.15;;;;;;;22.04;58.04;96498.88;10530164;28;20059;-34
2023/07/19 00:05:21;;;;;;;2.17;1.60;;;;;;;22.04;57.87;96492.94;10532204;28;20052;-34
2023/07/19 00:10:22;;;;;;;3.00;2.70;;;;;;;22.23;58.70;96492.56;10525836;28;20043;-33
2023/07/19 00:15:24;;;;;;;4.20;3.20;;;;;;;22.31;58.62;96483.06;10525351;28;20040;-35
2023/07/19 00:20:24;;;;;;;4.95;2.85;;;;;;;22.26;58.45;96479.78;10532946;28;20027;-34
2023/07/19 00:25:24;;;;;;;4.13;2.63;;;;;;;22.17;58.01;96487.59;10533076;28;20036;-34
2023/07/19 00:30:25;;;;;;;2.63;2.40;;;;;;;22.11;57.85;96485.16;10532557;28;20497;-33
2023/07/19 00:35:26;;;;;;;3.95;2.85;;;;;;;22.09;57.93;96474.16;10522864;28;20493;-33
2023/07/19 00:40:26;;;;;;;3.05;2.22;;;;;;;22.06;57.92;96481.00;10530885;28;20107;-34
2023/07/19 00:45:27;;;;;;;2.77;2.33;;;;;;;22.06;57.88;96501.41;10532606;28;20508;-34
2023/07/19 00:50:27;;;;;;;3.45;2.92;;;;;;;22.05;57.80;96494.63;10532614;28;20047;-33
2023/07/19 00:55:28;;;;;;;3.13;2.60;;;;;;;22.12;58.44;96491.94;10542139;28;20046;-34
2023/07/19 01:00:29;;;;;;;4.83;2.90;;;;;;;22.27;58.30;96499.31;10509259;28;20047;-34
2023/07/19 01:05:30;;;;;;;4.80;3.55;;;;;;;22.29;57.88;96499.25;10504397;28;20119;-35
2023/07/19 01:10:31;;;;;;;3.90;2.92;;;;;;;22.22;57.92;96493.44;10525146;28;20408;-35
2023/07/19 01:15:32;;;;;;;4.88;2.58;;;;;;;22.16;57.65;96501.19;10502204;28;20029;-35
2023/07/19 01:20:34;;;;;;;2.53;1.95;;;;;;;22.10;57.69;96497.94;10506280;28;20032;-34
2023/07/19 01:25:35;;;;;;;4.22;2.05;;;;;;;22.07;57.83;96498.81;10524061;28;20086;-33
2023/07/19 01:30:35;;;;;;;4.47;2.13;;;;;;;22.04;57.84;96493.78;10506484;28;20123;-34
2023/07/19 01:35:37;;;;;;;3.38;2.67;;;;;;;22.04;58.25;96487.81;10546183;28;20053;-34
2023/07/19 01:40:38;;;;;;;2.77;2.00;;;;;;;22.03;57.93;96491.25;10521206;28;20079;-34
2023/07/19 01:45:38;;;;;;;3.92;3.03;;;;;;;22.20;58.08;96482.44;10517683;28;20285;-34
2023/07/19 01:50:39;;;;;;;5.18;3.28;;;;;;;22.29;58.05;96479.72;10523162;28;20524;-39
2023/07/19 01:55:41;;;;;;;6.35;3.20;;;;;;;22.25;57.95;96485.75;10522487;28;20456;-34
2023/07/19 02:00:42;;;;;;;4.35;2.80;;;;;;;22.17;57.87;96487.59;10521635;28;20063;-34
2023/07/19 02:05:42;;;;;;;4.77;2.57;;;;;;;22.10;57.62;96492.81;10537782;28;20034;-34
2023/07/19 02:10:42;;;;;;;4.00;2.25;;;;;;;22.06;57.76;96494.59;10515872;28;20814;-33
2023/07/19 02:15:44;;;;;;;2.63;2.35;;;;;;;22.05;57.69;96499.72;10510877;28;20094;-34
2023/07/19 02:20:47;;;;;;;4.47;3.15;;;;;;;22.04;57.92;96503.97;10535552;28;20086;-33
2023/07/19 02:25:48;;;;;;;2.92;2.47;;;;;;;22.04;57.94;96503.13;10528137;28;20132;-34
2023/07/19 02:30:49;;;;;;;4.78;3.60;;;;;;;22.11;59.04;96499.59;10520997;28;20059;-33
2023/07/19 02:35:54;;;;;;;5.75;3.25;;;;;;;22.25;58.87;96497.66;10519443;28;20036;-33
2023/07/19 02:41:01;;;;;;;6.82;3.80;;;;;;;22.27;58.72;96506.97;10538062;28;20050;-34
2023/07/19 02:46:01;;;;;;;4.35;2.95;;;;;;;22.21;58.27;96512.16;10531096;28;20074;-34
2023/07/19 02:51:02;;;;;;;5.80;3.27;;;;;;;22.13;57.94;96511.47;10516207;28;20083;-34
2023/07/19 02:56:02;;;;;;;3.95;3.33;;;;;;;22.09;57.92;96517.50;10517474;28;20032;-35
2023/07/19 03:01:03;;;;;;;4.00;3.10;;;;;;;22.07;57.86;96514.09;10536156;28;20393;-33
2023/07/19 03:06:03;;;;;;;4.30;2.53;;;;;;;22.05;57.83;96520.97;10530138;28;20036;-33
2023/07/19 03:11:06;;;;;;;6.20;3.53;;;;;;;22.04;57.94;96529.47;10521366;28;20031;-34
2023/07/19 03:16:06;;;;;;;6.05;3.50;;;;;;;22.05;58.13;96530.31;10515949;28;20513;-34
2023/07/19 03:21:06;;;;;;;4.80;3.15;;;;;;;22.20;58.79;96536.00;10509640;28;20028;-34
2023/07/19 03:26:07;;;;;;;4.23;3.60;;;;;;;22.29;58.91;96543.47;10535042;28;20040;-33
2023/07/19 03:31:11;;;;;;;7.05;3.60;;;;;;;22.26;58.91;96541.00;10527529;28;20032;-33
2023/07/19 03:36:13;;;;;;;4.27;3.70;;;;;;;22.16;58.22;96542.00;10512958;28;20142;-34
2023/07/19 03:41:13;;;;;;;6.10;3.10;;;;;;;22.04;58.57;96544.78;10529918;28;20034;-33
2023/07/19 03:46:14;;;;;;;8.43;3.85;;;;;;;22.31;60.46;96544.28;10528326;28;20027;-34
2023/07/19 03:51:14;;;;;;;7.63;5.00;;;;;;;22.33;61.34;96562.13;10522055;28;20562;-34
2023/07/19 03:56:15;;;;;;;8.52;5.70;;;;;;;22.26;61.67;96561.41;10532466;28;20027;-34
2023/07/19 04:01:16;;;;;;;6.72;4.25;;;;;;;22.28;62.08;96559.66;10506159;28;20035;-33
2023/07/19 04:06:18;;;;;;;7.18;4.93;;;;;;;22.31;62.44;96569.78;10501593;28;20028;-34
2023/07/19 04:11:18;;;;;;;7.20;5.25;;;;;;;22.25;62.59;96580.13;10522123;28;20036;-34
2023/07/19 04:16:19;;;;;;;9.33;4.87;;;;;;;22.27;62.80;96568.19;10537456;28;20482;-33
2023/07/19 04:21:19;;;;;;;7.15;5.70;;;;;;;22.23;63.23;96576.75;10523553;28;20024;-33
2023/07/19 04:26:22;;;;;;;8.02;5.15;;;;;;;22.25;63.55;96574.16;10506327;28;20288;-34
2023/07/19 04:31:22;;;;;;;10.93;5.00;;;;;;;22.22;63.94;96569.97;10551119;28;20165;-33
2023/07/19 04:36:23;;;;;;;8.38;5.00;;;;;;;22.20;64.10;96576.81;10532473;28;20505;-34
2023/07/19 04:41:23;;;;;;;7.10;5.00;;;;;;;22.25;64.37;96585.22;10505015;28;20032;-33
2023/07/19 04:46:27;;;;;;;8.60;5.57;;;;;;;22.23;64.71;96584.38;10522990;28;20028;-33
2023/07/19 04:51:28;;;;;;;6.18;4.20;;;;;;;22.33;64.72;96591.00;10505090;28;20029;-33
2023/07/19 04:56:29;;;;;;;16.27;5.63;;;;;;;22.36;64.89;96588.44;10511044;28;20035;-35
2023/07/19 05:01:29;;;;;;;11.20;5.53;;;;;;;22.31;65.39;96590.19;10524655;28;20294;-33
2023/07/19 05:06:31;;;;;;;7.15;4.90;;;;;;;22.32;65.60;96596.97;10468245;28;20692;-34
2023/07/19 05:11:31;;;;;;;11.20;5.32;;;;;;;22.25;66.29;96589.47;10488842;28;20048;-34
2023/07/19 05:16:35;;;;;;;10.27;4.80;;;;;;;22.26;66.64;96586.91;10475524;28;20032;-33
2023/07/19 05:21:36;;;;;;;10.88;5.18;;;;;;;22.27;67.18;96596.25;10465289;28;20028;-34
2023/07/19 05:26:37;;;;;;;11.65;5.93;;;;;;;22.22;67.37;96585.25;10480674;28;20036;-33
2023/07/19 05:31:38;;;;;;;10.77;8.55;;;;;;;22.19;67.22;96600.63;10481048;28;20028;-34
2023/07/19 05:36:38;;;;;;;20.17;12.87;;;;;;;22.24;67.86;96601.38;10481588;28;20136;-33
2023/07/19 05:41:39;;;;;;;16.50;11.87;;;;;;;22.24;67.84;96598.81;10486118;28;20039;-33
2023/07/19 05:46:39;;;;;;;14.13;11.48;;;;;;;22.20;67.25;96607.41;10480864;28;20080;-33
2023/07/19 05:51:40;;;;;;;9.80;7.43;;;;;;;22.18;65.78;96604.03;10484523;28;20062;-33
2023/07/19 05:56:40;;;;;;;10.87;7.43;;;;;;;22.17;65.07;96604.91;10488773;28;20040;-34
2023/07/19 06:01:40;;;;;;;11.03;6.27;;;;;;;22.16;65.48;96600.66;10488814;28;20181;-33
2023/07/19 06:06:41;;;;;;;10.13;5.53;;;;;;;22.17;64.55;96594.72;10482422;28;20043;-33
2023/07/19 06:11:41;;;;;;;7.70;5.73;;;;;;;22.19;65.44;96598.06;10496377;28;20358;-33
2023/07/19 06:16:41;;;;;;;7.73;5.30;;;;;;;22.18;65.50;96598.94;10518263;28;20282;-34
2023/07/19 06:21:42;;;;;;;11.50;5.90;;;;;;;22.29;67.64;96602.16;10491149;28;20028;-34
2023/07/19 06:26:42;;;;;;;6.67;4.67;;;;;;;22.32;66.90;96586.78;10486809;28;20042;-31
2023/07/19 06:31:43;;;;;;;9.07;4.90;;;;;;;22.15;64.21;96572.66;10481967;28;20736;-34
2023/07/19 06:36:43;;;;;;;7.95;4.88;;;;;;;22.14;63.61;96582.00;10499225;28;20451;-33
2023/07/19 06:41:43;;;;;;;7.97;4.23;;;;;;;22.09;62.00;96565.94;10520158;28;20062;-33
2023/07/19 06:46:44;;;;;;;6.00;4.43;;;;;;;22.09;61.90;96568.50;10450688;28;20501;-33
2023/07/19 06:51:44;;;;;;;8.20;3.80;;;;;;;22.12;63.09;96563.34;10472537;28;20362;-34
2023/07/19 06:56:45;;;;;;;7.85;4.68;;;;;;;22.18;63.52;96558.13;10468289;28;20290;-34
2023/07/19 07:01:45;;;;;;;12.00;5.33;;;;;;;22.33;63.97;96567.22;10531682;28;20020;-37
2023/07/19 07:06:45;;;;;;;10.77;4.47;;;;;;;22.29;61.86;96569.00;10546704;28;20278;-33
2023/07/19 07:11:46;;;;;;;10.37;4.00;;;;;;;22.20;62.13;96571.69;10538214;28;20490;-33
2023/07/19 07:16:46;;;;;;;6.23;3.77;;;;;;;22.15;61.18;96583.66;10541712;28;20032;-33
2023/07/19 07:21:46;;;;;;;7.90;4.10;;;;;;;22.08;61.15;96584.63;10546136;28;20112;-33
2023/07/19 07:26:47;;;;;;;4.57;3.30;;;;;;;22.09;60.86;96603.34;10544404;28;20033;-33
2023/07/19 07:31:47;;;;;;;5.82;3.50;;;;;;;22.06;60.91;96591.47;10528241;28;20032;-33
2023/07/19 07:36:48;;;;;;;5.13;3.60;;;;;;;22.05;60.60;96596.63;10538572;28;20275;-34
2023/07/19 07:41:48;;;;;;;5.20;3.87;;;;;;;22.18;62.20;96588.75;10534596;28;20024;-33
2023/07/19 07:46:51;;;;;;;7.30;4.20;;;;;;;22.32;63.00;96581.69;10525523;28;20285;-34
2023/07/19 07:51:52;;;;;;;13.68;4.10;;;;;;;22.29;61.39;96573.22;10538741;28;20115;-33
2023/07/19 07:56:52;;;;;;;4.70;3.55;;;;;;;22.19;61.54;96575.13;10525700;28;20036;-34
2023/07/19 08:01:52;;;;;;;5.33;3.20;;;;;;;22.14;60.74;96566.69;10532084;28;20036;-33
2023/07/19 08:06:54;;;;;;;6.47;3.07;;;;;;;22.10;60.60;96569.31;10530027;28;20036;-34
2023/07/19 08:11:54;;;;;;;6.90;3.47;;;;;;;22.07;60.37;96567.66;10525021;28;20850;-33
2023/07/19 08:16:55;;;;;;;4.68;3.45;;;;;;;22.05;60.49;96564.31;10522455;28;20088;-33
2023/07/19 08:22:03;;;;;;;5.30;3.47;;;;;;;22.04;60.10;96559.22;10540567;28;20032;-34
2023/07/19 08:27:04;;;;;;;10.13;4.35;;;;;;;22.13;62.05;96559.09;10534449;28;20085;-35
2023/07/19 08:32:05;;;;;;;6.85;3.55;;;;;;;22.29;62.30;96557.94;10528317;28;20482;-33
2023/07/19 08:37:05;;;;;;;4.85;3.13;;;;;;;22.30;61.51;96550.25;10526808;28;20039;-34
2023/07/19 08:42:06;;;;;;;3.90;3.17;;;;;;;22.20;61.24;96540.25;10537507;28;20028;-34
2023/07/19 08:47:11;;;;;;;6.75;3.97;;;;;;;22.14;60.48;96543.75;10531447;28;20468;-34
2023/07/19 08:52:13;;;;;;;6.03;3.13;;;;;;;22.12;60.27;96552.28;10538583;28;20519;-34
2023/07/19 08:57:14;;;;;;;5.30;3.00;;;;;;;22.08;60.32;96551.50;10518599;28;20044;-34
2023/07/19 09:02:14;;;;;;;5.30;2.92;;;;;;;22.07;60.25;96541.34;10541460;28;20073;-34
2023/07/19 09:07:15;;;;;;;4.78;3.33;;;;;;;22.06;60.17;96539.66;10538094;28;20028;-34
2023/07/19 09:12:16;;;;;;;4.10;3.40;;;;;;;22.06;60.23;96532.84;10544938;28;20048;-34
2023/07/19 09:17:16;;;;;;;4.10;3.20;;;;;;;22.21;61.96;96532.56;10531311;28;20035;-35
2023/07/19 09:22:17;;;;;;;7.10;3.75;;;;;;;22.33;61.96;96532.34;10531290;28;20028;-34
2023/07/19 09:27:23;;;;;;;4.35;2.97;;;;;;;22.27;60.79;96527.38;10526239;28;20039;-34
2023/07/19 09:32:24;;;;;;;4.85;2.95;;;;;;;22.19;60.71;96524.13;10528194;28;20150;-34
2023/07/19 09:37:25;;;;;;;10.45;4.22;;;;;;;22.14;60.38;96515.69;10525301;28;20590;-33
2023/07/19 09:42:25;;;;;;;4.23;2.77;;;;;;;22.10;60.16;96510.69;10523322;28;20028;-34
2023/07/19 09:47:26;;;;;;;4.20;3.45;;;;;;;22.06;60.02;96507.34;10530623;28;20318;-34
2023/07/19 09:52:27;;;;;;;4.50;3.28;;;;;;;22.07;60.36;96510.75;10529763;28;20024;-34
2023/07/19 09:57:27;;;;;;;3.35;2.92;;;;;;;22.05;60.17;96515.03;10532151;28;20054;-34
2023/07/19 10:02:28;;;;;;;7.10;3.78;;;;;;;22.12;61.44;96502.13;10534687;28;20027;-33
2023/07/19 10:07:29;;;;;;;4.07;3.67;;;;;;;22.30;62.33;96501.81;10533972;28;20036;-34
2023/07/19 10:12:31;;;;;;;4.00;3.08;;;;;;;22.31;61.44;96503.47;10528723;28;20297;-34
2023/07/19 10:17:53;;;;;;;3.15;2.83;;;;;;;22.20;60.50;96502.84;10528906;28;20028;-34
2023/07/19 10:22:56;;;;;;;2.67;2.30;;;;;;;22.09;60.24;96504.75;10530876;28;20049;-34
2023/07/19 10:27:58;;;;;;;5.32;2.88;;;;;;;22.08;60.22;96510.69;10537911;28;20146;-34
2023/07/19 10:32:59;;;;;;;2.95;2.65;;;;;;;22.05;60.09;96504.84;10539075;28;20032;-35
2023/07/19 10:37:59;;;;;;;2.85;2.60;;;;;;;22.04;60.04;96501.44;10537201;28;20031;-33
2023/07/19 10:43:02;;;;;;;3.03;2.40;;;;;;;22.02;60.19;96500.63;10535259;28;20031;-33
2023/07/19 10:48:04;;;;;;;2.58;2.38;;;;;;;22.02;59.96;96508.28;10526284;28;20657;-34
2023/07/19 10:53:06;;;;;;;3.63;3.33;;;;;;;22.21;60.96;96496.88;10530777;28;20416;-35
2023/07/19 10:58:06;;;;;;;3.53;3.03;;;;;;;22.30;61.35;96495.88;10539650;28;20039;-34
2023/07/19 11:03:11;;;;;;;4.03;2.67;;;;;;;22.26;60.23;96490.00;10536513;28;20032;-35
2023/07/19 11:08:29;;;;;;;2.30;2.10;;;;;;;22.16;60.08;96495.28;10530265;28;20375;-34
2023/07/19 11:13:30;;;;;;;3.03;2.42;;;;;;;22.09;59.87;96486.91;10530446;28;20513;-33
2023/07/19 11:18:40;;;;;;;2.42;2.22;;;;;;;22.05;60.10;96490.34;10538173;28;20130;-34
2023/07/19 11:23:41;;;;;;;3.63;2.40;;;;;;;22.05;60.11;96489.53;10544403;28;20056;-34
2023/07/19 11:28:58;;;;;;;3.13;2.58;;;;;;;22.02;59.90;96480.22;10534214;28;20035;-35
2023/07/19 11:34:06;;;;;;;4.13;2.38;;;;;;;22.06;60.53;96486.94;10523808;28;20089;-33
2023/07/19 11:39:16;;;;;;;3.42;2.80;;;;;;;22.16;60.64;96478.25;10533170;28;20040;-33
2023/07/19 11:44:19;;;;;;;3.97;2.88;;;;;;;22.32;61.13;96482.19;10531476;28;20119;-33
2023/07/19 11:49:19;;;;;;;5.30;2.50;;;;;;;22.31;59.83;96482.25;10533736;28;20509;-33
2023/07/19 11:54:20;;;;;;;2.73;2.40;;;;;;;22.19;60.60;96480.75;10535793;28;20043;-34
2023/07/19 11:59:20;;;;;;;5.57;2.83;;;;;;;22.12;60.00;96470.69;10532116;28;20043;-33
2023/07/19 12:04:20;;;;;;;2.60;2.10;;;;;;;22.07;59.89;96475.88;10531731;28;20143;-33
2023/07/19 12:09:22;;;;;;;3.43;2.87;;;;;;;22.06;60.00;96476.75;10532770;28;20039;-33
2023/07/19 12:14:22;;;;;;;2.47;2.20;;;;;;;22.04;59.94;96475.94;10530702;28;20310;-34
2023/07/19 12:19:23;;;;;;;2.87;2.10;;;;;;;22.04;59.84;96482.72;10524649;28;20124;-33
2023/07/19 12:24:23;;;;;;;3.50;1.85;;;;;;;22.04;59.83;96478.47;10532045;28;20512;-33
2023/07/19 12:29:25;;;;;;;6.17;2.57;;;;;;;22.24;60.59;96468.75;10533280;28;20036;-34
2023/07/19 12:34:26;;;;;;;5.30;2.35;;;;;;;22.36;60.52;96471.09;10531940;28;20051;-34
2023/07/19 12:39:26;;;;;;;3.88;2.30;;;;;;;22.28;60.13;96470.38;10533023;28;20039;-33
2023/07/19 12:44:26;;;;;;;3.03;2.10;;;;;;;22.17;60.25;96469.75;10491274;28;20031;-34
2023/07/19 12:49:27;;;;;;;5.17;2.40;;;;;;;22.10;59.92;96460.53;10478833;28;20042;-34
2023/07/19 12:54:28;;;;;;;5.00;2.20;;;;;;;22.06;59.74;96453.78;10468214;28;20651;-34
2023/07/19 12:59:29;;;;;;;6.53;2.20;;;;;;;22.03;59.89;96451.31;10480566;28;20063;-33
2023/07/19 13:04:29;;;;;;;2.50;1.98;;;;;;;22.04;59.88;96452.13;10482032;28;20032;-34
2023/07/19 13:09:30;;;;;;;2.60;1.90;;;;;;;22.02;59.91;96454.72;10485254;28;20028;-34
2023/07/19 13:14:30;;;;;;;7.93;2.50;;;;;;;22.08;60.66;96451.22;10485284;28;20051;-35
2023/07/19 13:19:30;;;;;;;4.10;2.60;;;;;;;22.30;60.71;96437.22;10498092;28;20082;-34
2023/07/19 13:24:31;;;;;;;3.90;2.10;;;;;;;22.34;59.95;96439.66;10496338;28;20051;-35
2023/07/19 13:29:32;;;;;;;3.10;2.20;;;;;;;22.22;60.23;96441.63;10503837;28;20097;-33
2023/07/19 13:34:32;;;;;;;2.25;2.05;;;;;;;22.13;59.87;96442.63;10505665;28;20052;-35
2023/07/19 13:39:33;;;;;;;2.30;2.10;;;;;;;22.09;59.77;96440.16;10488042;28;20027;-35
2023/07/19 13:44:33;;;;;;;2.20;2.00;;;;;;;22.06;59.82;96425.75;10499185;28;20063;-33
2023/07/19 13:49:33;;;;;;;2.43;1.80;;;;;;;22.04;59.74;96426.63;10499954;28;20036;-33
2023/07/19 13:54:35;;;;;;;4.13;2.50;;;;;;;22.04;60.29;96422.38;10529862;28;20441;-34
2023/07/19 13:59:36;;;;;;;5.75;2.63;;;;;;;22.12;61.16;96427.34;10540287;28;20043;-33
2023/07/19 14:04:36;;;;;;;6.45;3.10;;;;;;;22.31;61.08;96416.75;10537308;28;20032;-33
2023/07/19 14:09:36;;;;;;;3.60;2.30;;;;;;;22.40;60.33;96410.66;10530286;28;20493;-33
2023/07/19 14:14:37;;;;;;;3.90;1.90;;;;;;;22.31;60.19;96405.72;10533542;28;20081;-33
2023/07/19 14:19:38;;;;;;;15.27;2.57;;;;;;;22.22;60.33;96406.75;10535244;28;20040;-34
2023/07/19 14:24:38;;;;;;;6.65;2.60;;;;;;;22.18;59.86;96411.94;10537573;28;20067;-33
2023/07/19 14:29:40;;;;;;;3.57;2.37;;;;;;;22.12;59.92;96399.28;10537849;28;20075;-32
2023/07/19 14:34:41;;;;;;;5.80;3.05;;;;;;;22.11;59.92;96418.88;10537098;28;20107;-33
2023/07/19 14:39:41;;;;;;;6.33;2.60;;;;;;;22.11;59.88;96415.47;10535678;28;20040;-34
2023/07/19 14:44:41;;;;;;;2.37;1.93;;;;;;;22.31;61.05;96411.66;10535583;28;20036;-33
2023/07/19 14:49:42;;;;;;;5.07;2.67;;;;;;;22.37;60.34;96398.78;10534558;28;20036;-33
2023/07/19 14:54:45;;;;;;;3.80;2.15;;;;;;;22.30;60.54;96397.22;10533479;28;20142;-33
2023/07/19 14:59:45;;;;;;;6.05;2.30;;;;;;;22.22;60.46;96400.81;10530817;28;20056;-33
2023/07/19 15:04:46;;;;;;;4.80;2.27;;;;;;;22.18;60.11;96388.97;10545087;28;20036;-33
2023/07/19 15:09:47;;;;;;;5.03;2.33;;;;;;;22.15;60.07;96402.63;10524116;28;20044;-34
2023/07/19 15:14:47;;;;;;;6.43;1.90;;;;;;;22.13;59.93;96391.63;10534257;28;20039;-34
2023/07/19 15:19:47;;;;;;;8.40;3.67;;;;;;;22.11;60.10;96388.28;10527556;28;20586;-34
2023/07/19 15:24:48;;;;;;;3.57;2.40;;;;;;;22.23;60.91;96385.47;10528451;28;20040;-34
2023/07/19 15:29:48;;;;;;;4.37;2.30;;;;;;;22.39;61.44;96391.94;10535666;28;20068;-33
2023/07/19 15:34:48;;;;;;;4.07;2.27;;;;;;;22.36;60.34;96388.59;10524533;28;20055;-33
2023/07/19 15:39:51;;;;;;;5.83;2.00;;;;;;;22.24;60.63;96382.03;10524014;28;20293;-33
2023/07/19 15:44:51;;;;;;;3.80;1.95;;;;;;;22.19;60.18;96381.31;10534227;28;20043;-33
2023/07/19 15:49:52;;;;;;;3.83;1.95;;;;;;;22.17;60.13;96388.16;10525521;28;20032;-34
2023/07/19 15:54:52;;;;;;;2.70;2.20;;;;;;;22.14;60.30;96385.66;10523143;28;20043;-33
2023/07/19 15:59:52;;;;;;;2.50;2.10;;;;;;;22.13;59.97;96378.88;10527410;28;20556;-33
2023/07/19 16:04:53;;;;;;;3.77;2.27;;;;;;;22.16;59.96;96376.25;10534152;28;20290;-34
2023/07/19 16:09:53;;;;;;;5.60;2.90;;;;;;;22.39;61.97;96380.91;10532992;28;20092;-33
2023/07/19 16:14:53;;;;;;;5.40;2.20;;;;;;;22.43;60.58;96374.88;10523097;28;20456;-33
2023/07/19 16:19:54;;;;;;;3.23;1.60;;;;;;;22.31;59.52;96375.94;10518148;28;20477;-34
2023/07/19 16:24:54;;;;;;;2.13;1.70;;;;;;;22.24;59.58;96379.50;10533147;28;20286;-33
2023/07/19 16:29:54;;;;;;;3.13;2.03;;;;;;;22.23;59.74;96380.38;10532110;28;20040;-33
2023/07/19 16:34:55;;;;;;;3.07;1.90;;;;;;;22.22;59.97;96375.31;10527437;28;20036;-34
2023/07/19 16:39:55;;;;;;;3.60;1.63;;;;;;;22.11;59.63;96350.03;10530367;28;20491;-33
2023/07/19 16:44:56;;;;;;;3.30;2.08;;;;;;;22.21;59.96;96364.25;10528651;28;20071;-33
2023/07/19 16:49:56;;;;;;;5.30;2.50;;;;;;;22.36;60.85;96369.06;10531925;28;20043;-34
2023/07/19 16:54:56;;;;;;;5.53;2.60;;;;;;;22.47;61.31;96367.13;10532312;28;20036;-33
2023/07/19 16:59:57;;;;;;;4.47;2.37;;;;;;;22.40;60.04;96370.66;10532424;28;20447;-32
2023/07/19 17:04:57;;;;;;;2.10;1.90;;;;;;;22.29;59.73;96372.59;10538949;28;20496;-34
2023/07/19 17:09:58;;;;;;;5.38;1.98;;;;;;;22.24;59.57;96378.66;10555791;28;20043;-34
2023/07/19 17:14:58;;;;;;;3.93;2.53;;;;;;;22.18;59.63;96377.09;10531164;28;20040;-33
2023/07/19 17:19:58;;;;;;;4.53;1.90;;;;;;;22.20;59.77;96382.13;10522195;28;20038;-32
2023/07/19 17:24:59;;;;;;;2.43;1.87;;;;;;;22.19;59.86;96386.41;10536979;28;20032;-34
2023/07/19 17:29:59;;;;;;;21.67;5.23;;;;;;;22.34;61.83;96390.34;10542134;28;20031;-33
2023/07/19 17:34:59;;;;;;;14.73;4.20;;;;;;;22.48;61.66;96389.22;10534133;28;20043;-35
2023/07/19 17:40:00;;;;;;;7.47;2.57;;;;;;;22.45;60.17;96404.59;10535246;28;20028;-35
2023/07/19 17:45:00;;;;;;;9.23;2.80;;;;;;;22.32;59.71;96400.56;10531297;28;20036;-34
2023/07/19 17:50:00;;;;;;;7.60;2.60;;;;;;;22.28;59.87;96416.81;10536336;28;20050;-33
2023/07/19 17:55:02;;;;;;;5.03;2.60;;;;;;;22.23;59.81;96413.50;10536180;28;20278;-33
2023/07/19 18:00:04;;;;;;;5.45;3.33;;;;;;;22.20;59.74;96413.59;10538554;28;20040;-36
2023/07/19 18:05:08;;;;;;;5.87;2.67;;;;;;;22.18;59.90;96414.47;10541922;28;20055;-33
2023/07/19 18:10:08;;;;;;;7.15;3.00;;;;;;;22.38;61.11;96433.63;10554890;28;20051;-33
2023/07/19 18:15:09;;;;;;;5.07;2.78;;;;;;;22.47;61.21;96428.38;10521750;28;20042;-34
2023/07/19 18:20:10;;;;;;;6.97;3.05;;;;;;;22.39;60.27;96431.94;10533772;28;20040;-35
2023/07/19 18:25:10;;;;;;;5.63;3.80;;;;;;;22.31;60.09;96429.50;10527938;28;20559;-34
2023/07/19 18:30:10;;;;;;;5.70;2.85;;;;;;;22.25;59.68;96442.41;10529403;28;20040;-34
2023/07/19 18:35:11;;;;;;;5.68;2.88;;;;;;;22.23;59.55;96448.41;10522908;28;20042;-33
2023/07/19 18:40:12;;;;;;;3.95;2.20;;;;;;;22.22;59.63;96447.53;10532393;28;20720;-34
2023/07/19 18:45:12;;;;;;;6.70;2.80;;;;;;;22.37;60.91;96444.69;10522483;28;20043;-34
2023/07/19 18:50:12;;;;;;;3.97;2.33;;;;;;;22.49;60.80;96457.25;10523643;28;20028;-35
2023/07/19 18:55:13;;;;;;;4.00;2.37;;;;;;;22.39;59.98;96465.91;10532239;28;20036;-34
2023/07/19 19:00:13;;;;;;;3.03;2.30;;;;;;;22.29;59.55;96464.41;10540711;28;20286;-34
2023/07/19 19:05:14;;;;;;;3.83;2.58;;;;;;;22.28;59.80;96467.84;10532106;28;20031;-34
2023/07/19 19:10:14;;;;;;;5.00;2.67;;;;;;;22.29;61.28;96477.16;10526380;28;20035;-33
2023/07/19 19:15:15;;;;;;;4.60;2.60;;;;;;;22.28;59.99;96477.19;10520764;28;20294;-35
2023/07/19 19:20:15;;;;;;;8.88;2.80;;;;;;;22.25;59.98;96488.31;10529917;28;20068;-35
2023/07/19 19:25:16;;;;;;;4.27;2.20;;;;;;;22.40;61.28;96495.66;10530154;28;20039;-33
2023/07/19 19:30:16;;;;;;;4.20;2.50;;;;;;;22.51;60.95;96501.44;10532350;28;20455;-33
2023/07/19 19:35:17;;;;;;;5.33;2.60;;;;;;;22.43;60.30;96495.66;10528582;28;20650;-34
2023/07/19 19:40:17;;;;;;;5.47;2.65;;;;;;;22.32;59.65;96510.25;10533276;28;20710;-33
2023/07/19 19:45:18;;;;;;;3.23;2.10;;;;;;;22.25;59.77;96513.81;10528144;28;20035;-34
2023/07/19 19:50:18;;;;;;;3.13;2.23;;;;;;;22.23;59.44;96518.06;10514641;28;20036;-33
2023/07/19 19:55:18;;;;;;;3.37;2.00;;;;;;;22.22;59.75;96518.94;10520994;28;20297;-34
2023/07/19 20:00:19;;;;;;;3.83;1.93;;;;;;;22.20;59.65;96525.78;10528802;28;20035;-34
2023/07/19 20:05:21;;;;;;;6.85;2.40;;;;;;;22.34;60.56;96539.16;10528732;28;20042;-33
2023/07/19 20:10:21;;;;;;;3.30;2.13;;;;;;;22.48;60.98;96546.59;10527809;28;20039;-33
2023/07/19 20:15:22;;;;;;;4.80;1.80;;;;;;;22.46;59.84;96544.06;10518799;28;20032;-34
2023/07/19 20:20:23;;;;;;;4.68;2.17;;;;;;;22.33;59.50;96545.09;10527895;28;20048;-33
2023/07/19 20:25:24;;;;;;;3.10;2.00;;;;;;;22.24;59.41;96541.88;10523067;28;20047;-34
2023/07/19 20:30:24;;;;;;;4.37;2.30;;;;;;;22.37;60.29;96554.41;10524425;28;20775;-33
2023/07/19 20:35:24;;;;;;;4.43;1.70;;;;;;;22.31;58.14;96561.31;10540672;28;20028;-33
2023/07/19 20:40:25;;;;;;;3.73;1.83;;;;;;;22.23;57.43;96563.16;10519873;28;20031;-34
2023/07/19 20:45:25;;;;;;;3.10;1.60;;;;;;;22.15;54.42;96573.47;10521486;28;20032;-34
2023/07/19 20:50:26;;;;;;;3.70;1.77;;;;;;;22.23;54.15;96576.75;10524037;28;20119;-33
2023/07/19 20:55:26;;;;;;;3.50;1.73;;;;;;;22.16;53.40;96587.06;10530950;28;20520;-34
2023/07/19 21:00:27;;;;;;;4.30;1.70;;;;;;;22.10;52.81;96592.28;10525132;28;20376;-34
2023/07/19 21:05:28;;;;;;;3.20;1.50;;;;;;;22.05;52.40;96589.78;10522791;28;20047;-34
2023/07/19 21:10:28;;;;;;;3.10;1.48;;;;;;;22.05;53.32;96601.72;10529071;28;20500;-33
2023/07/19 21:15:28;;;;;;;4.90;1.13;;;;;;;22.04;52.11;96605.97;10524122;28;20028;-34
2023/07/19 21:20:29;;;;;;;3.37;1.40;;;;;;;21.97;52.42;96594.16;10522455;28;20043;-33
2023/07/19 21:25:29;;;;;;;4.50;1.53;;;;;;;22.05;52.59;96594.91;10522068;28;20032;-34
2023/07/19 21:30:30;;;;;;;3.30;1.30;;;;;;;22.12;53.03;96593.94;10529369;28;20377;-33
2023/07/19 21:35:30;;;;;;;3.47;1.40;;;;;;;22.12;52.32;96591.38;10529479;28;20024;-32
2023/07/19 21:40:32;;;;;;;2.60;1.50;;;;;;;22.03;52.52;96599.19;10530719;28;20028;-32
2023/07/19 21:45:33;;;;;;;4.38;1.60;;;;;;;22.09;53.81;96604.19;10530660;28;20128;-32
2023/07/19 21:50:33;;;;;;;4.07;1.50;;;;;;;22.11;53.32;96607.56;10533158;28;20067;-32
2023/07/19 21:55:34;;;;;;;2.25;1.30;;;;;;;21.98;53.01;96606.06;10525149;28;20028;-31
2023/07/19 22:00:45;;;;;;;2.30;1.60;;;;;;;22.15;53.63;96611.72;10537901;28;20038;-32
2023/07/19 22:05:45;;;;;;;2.25;1.30;;;;;;;21.90;52.74;96617.25;10536093;28;20281;-32
2023/07/19 22:10:49;;;;;;;1.80;1.30;;;;;;;21.84;52.07;96613.09;10536003;28;20486;-32
2023/07/19 22:15:49;;;;;;;3.53;1.30;;;;;;;21.94;50.56;96614.63;10532635;28;20406;-32
2023/07/19 22:20:52;;;;;;;3.50;1.50;;;;;;;21.84;51.57;96630.94;10531527;28;20024;-32
2023/07/19 22:25:53;;;;;;;4.50;1.73;;;;;;;21.86;51.36;96619.00;10528287;28;20656;-31
2023/07/19 22:30:55;;;;;;;4.35;1.20;;;;;;;21.82;51.36;96624.16;10528880;28;20078;-32
2023/07/19 22:35:55;;;;;;;5.88;1.95;;;;;;;21.71;51.55;96616.66;10530060;28;20440;-32
2023/07/19 22:40:55;;;;;;;1.90;1.73;;;;;;;21.67;51.32;96625.22;10537277;28;20024;-33
2023/07/19 22:45:56;;;;;;;3.97;1.50;;;;;;;21.59;51.14;96615.97;10527988;28;20027;-32
2023/07/19 22:50:56;;;;;;;6.93;1.47;;;;;;;21.60;50.62;96623.59;10519192;28;20032;-31
2023/07/19 22:55:59;;;;;;;4.87;1.30;;;;;;;21.69;50.49;96632.84;10536712;28;20323;-31
2023/07/19 23:00:59;;;;;;;5.10;1.40;;;;;;;21.65;50.72;96621.84;10532997;28;20032;-31
2023/07/19 23:06:00;;;;;;;3.13;1.20;;;;;;;21.53;51.40;96632.19;10536452;28;20504;-32
2023/07/19 23:11:02;;;;;;;4.00;1.77;;;;;;;21.51;51.41;96639.00;10534724;28;20035;-32
2023/07/19 23:16:03;;;;;;;6.63;1.58;;;;;;;21.51;51.53;96639.00;10532619;28;20042;-31